Terminal Aerodrome Forecast
Issued by NWS Quad Cities IA IL

Home | Current Version | Previous Version | Text Only | Print | Product List | Glossary On
Versions: 1 2 3 4 5 6 7 8 9 10 11 12 13 14 15 16 17 18 19 20 21 22 23
000
FTUS43 KDVN 290700 AAA
TAFMLI
TAF AMD
KMLI 290757Z 2908/3006 30005KT P6SM SCT150
     FM290900 29008KT 6SM BR OVC025
      TEMPO 2909/2912 4SM -DZ BR OVC012
     FM291200 32015G22KT 4SM BR OVC018
     FM291500 32019G29KT P6SM OVC025
     FM300000 32013KT P6SM SCT030=

USA.gov is the U.S. government's official web portal to all federal, state and local government web resources and services.